KRWL/RWL METAR and TAF weather

Enter ICAO airport designator
Station Type Date Time Source
KRWL METAR 2019/12/09 05:53 UTC NOAA

KRWL 090553Z AUTO 27014KT 10SM OVC013 M02/M05 A2982 RMK AO2 SLP098 60000 T10221050 10000 21022 53014


Station Type Date Time Source
KRWL Decoded METAR 2019/12/09 05:53 UTC NOAA

RAWLINS MUNICIPAL AIRPORT, WY, United States (KRWL) 41-48N 107-12W
Dec 09, 2019 - 12:53 AM EST / 2019.12.09 0553 UTC
Wind: from the W (270 degrees) at 16 MPH (14 KT):0
Visibility: 10 mile(s):0
Sky conditions: overcast
Temperature: 28.0 F (-2.2 C)
Windchill: 15 F (-9 C):1
Dew Point: 23.0 F (-5.0 C)
Relative Humidity: 81%
Pressure (altimeter): 29.82 in. Hg (1009 hPa)
Pressure tendency: 0.04 inches (1.4 hPa) higher than three hours ago
ob: KRWL 090553Z AUTO 27014KT 10SM OVC013 M02/M05 A2982 RMK AO2 SLP098 60000 T10221050 10000 21022 53014
cycle: 6

Station Type Date Time Source
KRWL TAF 2019/12/09 06:39 UTC NOAA

TAF KRWL 090535Z 0906/1006 26014KT P6SM -SN OVC018
FM091000 34006KT P6SM BKN025
FM091200 34006KT P6SM SCT035
FM091800 26018G28KT P6SM SKC
FM100100 25010KT P6SM SKC

Example: see airport list